AK7Z-6 Weather Reports


Display with metric or nautical units.
time (UTC)temp
F
wind
direction
speed
MPH
gust
MPH
rain 1hr
in
rain 24hr
in
rain mn
in
humidity
%
barometer
mb
20180122162047 35 356 20.0 22.0 0.00 0.00 0.00 100 999.2
20180122161546 34 347 21.0 22.0 0.00 0.00 0.00 1 997.5
20180122161046 34 355 21.0 23.0 0.00 0.00 0.00 100 999.3
20180122160957 34 357 22.0 25.0 0.00 0.00 0.00 100 1000.9
20180122160545 34 357 22.0 25.0 0.00 0.00 0.00 100 1000.9
20180122160044 34 356 24.0 26.0 0.00 0.00 0.00 100 998.5
20180122155731 34 5 23.0 25.0 0.00 0.00 0.00 100 1001.0
20180122155543 34 5 23.0 25.0 0.00 0.00 0.00 100 1001.0
20180122155043 34 355 22.0 25.0 0.00 0.00 0.00 1 997.7
20180122154542 34 356 22.0 24.0 0.00 0.00 0.00 1 998.3
20180122154406 34 356 23.0 24.0 0.00 0.00 0.00 1 998.6
20180122154310 34 356 23.0 24.0 0.00 0.00 0.00 1 998.6
20180122154045 34 356 23.0 24.0 0.00 0.00 0.00 1 998.6
20180122153544 34 355 23.0 24.0 0.00 0.00 0.00 1 995.8
20180122153043 34 354 22.0 24.0 0.00 0.00 0.00 1 996.4
20180122152543 34 355 21.0 24.0 0.00 0.00 0.00 1 993.2
20180122152042 34 360 19.0 23.0 0.00 0.00 0.00 1 992.0
20180122151541 34 356 24.0 26.0 0.00 0.00 0.00 1 989.8
20180122151241 34 354 24.0 27.0 0.00 0.00 0.00 1 992.7
20180122151052 34 354 24.0 27.0 0.00 0.00 0.00 1 992.7
20180122150640 33 357 23.0 24.0 0.00 0.00 0.00 1 997.9
20180122150552 33 357 23.0 24.0 0.00 0.00 0.00 1 997.9
20180122150050 33 354 21.0 25.0 0.00 0.00 0.00 100 998.8
20180122145737 33 353 21.0 23.0 0.00 0.00 0.00 1 1001.4
20180122145548 33 353 21.0 23.0 0.00 0.00 0.00 1 1001.4
20180122145048 33 354 21.0 25.0 0.00 0.00 0.00 100 998.1
20180122144547 33 344 20.0 24.0 0.00 0.00 0.00 100 997.1
20180122144322 33 353 21.0 23.0 0.00 0.00 0.00 100 998.0
20180122144051 33 353 21.0 23.0 0.00 0.00 0.00 100 998.0
20180122143551 33 356 21.0 23.0 0.00 0.00 0.00 100 999.1
20180122143050 33 355 22.0 25.0 0.00 0.00 0.00 100 997.1
20180122142813 33 353 24.0 25.0 0.00 0.00 0.00 100 998.6
20180122142549 33 353 24.0 25.0 0.00 0.00 0.00 100 998.6
20180122142312 33 357 22.0 24.0 0.00 0.00 0.00 100 997.9
20180122142048 33 357 22.0 24.0 0.00 0.00 0.00 100 997.9
20180122141912 33 354 23.0 25.0 0.00 0.00 0.00 100 996.0
20180122141547 33 354 23.0 25.0 0.00 0.00 0.00 100 996.0
20180122141046 33 360 20.0 24.0 0.00 0.00 0.00 1 1000.9
20180122140546 33 355 20.0 22.0 0.00 0.00 0.00 1 998.3
20180122140221 32 353 21.0 25.0 0.00 0.00 0.00 1 996.1
20180122140044 32 353 21.0 25.0 0.00 0.00 0.00 1 996.1
20180122135543 32 352 21.0 24.0 0.00 0.00 0.00 1 998.5
20180122135043 33 354 19.0 19.0 0.00 0.00 0.00 1 999.1
20180122134718 32 358 20.0 23.0 0.00 0.00 0.00 1 998.8
20180122134542 32 358 20.0 23.0 0.00 0.00 0.00 1 998.8
20180122134317 32 351 19.0 22.0 0.00 0.00 0.00 1 999.6
20180122134241 32 351 19.0 22.0 0.00 0.00 0.00 1 999.6
20180122134046 32 351 19.0 22.0 0.00 0.00 0.00 1 999.6
20180122133545 33 349 17.0 22.0 0.00 0.00 0.00 1 999.6
20180122133157 32 349 18.0 22.0 0.00 0.00 0.00 1 999.5
20180122133045 32 349 18.0 22.0 0.00 0.00 0.00 1 999.5
20180122132543 32 358 19.0 23.0 0.00 0.00 0.00 1 1000.1
20180122132042 32 353 19.0 22.0 0.00 0.00 0.00 2 999.9
20180122131541 32 350 20.0 22.0 0.00 0.00 0.00 2 998.7
20180122131041 32 354 19.0 21.0 0.00 0.00 0.00 2 998.4
20180122130552 32 354 20.0 23.0 0.00 0.00 0.00 2 998.1
20180122130051 32 350 19.0 23.0 0.00 0.00 0.00 2 997.8
20180122125550 32 352 19.0 21.0 0.00 0.00 0.00 2 1000.3
20180122125049 32 352 20.0 23.0 0.00 0.00 0.00 2 997.0
20180122124548 32 348 19.0 22.0 0.00 0.00 0.00 2 995.5
20180122124400 32 349 18.0 21.0 0.00 0.00 0.00 2 991.4
20180122124159 32 349 18.0 21.0 0.00 0.00 0.00 2 991.4
20180122124040 32 349 18.0 21.0 0.00 0.00 0.00 2 991.4
20180122123551 32 348 19.0 22.0 0.00 0.00 0.00 2 991.8
20180122123050 32 350 19.0 21.0 0.00 0.00 0.00 3 993.7
20180122122549 31 350 18.0 21.0 0.00 0.00 0.00 3 996.4
20180122122049 31 348 18.0 20.0 0.00 0.00 0.00 2 996.5
20180122121547 31 348 19.0 22.0 0.00 0.00 0.00 3 994.2
20180122121046 31 355 19.0 21.0 0.00 0.00 0.00 3 995.5
20180122120543 31 353 17.0 19.0 0.00 0.00 0.00 4 997.4
20180122120042 30 347 17.0 20.0 0.00 0.00 0.00 5 995.6
20180122115729 30 348 17.0 19.0 0.00 0.00 0.00 6 996.3
20180122115541 30 348 17.0 19.0 0.00 0.00 0.00 6 996.3
20180122115152 29 345 17.0 19.0 0.00 0.00 0.00 6 999.2
20180122115040 29 345 17.0 19.0 0.00 0.00 0.00 6 999.2
20180122114551 29 347 17.0 19.0 0.00 0.00 0.00 7 995.1
20180122114127 29 343 19.0 19.0 0.00 0.00 0.00 7 1001.8
20180122114044 29 343 19.0 19.0 0.00 0.00 0.00 7 1001.8
20180122113543 29 344 15.0 15.0 0.00 0.00 0.00 9 999.3
20180122113042 29 344 16.0 18.0 0.00 0.00 0.00 9 999.3
20180122112541 29 346 16.0 16.0 0.00 0.00 0.00 9 999.2
20180122112041 29 348 18.0 20.0 0.00 0.00 0.00 10 999.9
20180122111540 29 353 16.0 16.0 0.00 0.00 0.00 9 996.3
20180122111051 29 342 18.0 19.0 0.00 0.00 0.00 10 998.1
20180122110550 29 349 20.0 21.0 0.00 0.00 0.00 9 997.4
20180122110050 28 345 15.0 20.0 0.00 0.00 0.00 10 1000.4
20180122105549 28 348 18.0 19.0 0.00 0.00 0.00 10 996.2
20180122105048 28 349 17.0 19.0 0.00 0.00 0.00 10 996.0
20180122104547 28 344 18.0 21.0 0.00 0.00 0.00 10 994.5
20180122104047 28 350 20.0 22.0 0.00 0.00 0.00 10 995.1
20180122103551 28 343 20.0 24.0 0.00 0.00 0.00 10 995.3
20180122103202 28 337 21.0 23.0 0.00 0.00 0.00 9 995.7
20180122103050 28 337 21.0 23.0 0.00 0.00 0.00 9 995.7
20180122102549 28 344 21.0 24.0 0.00 0.00 0.00 9 995.0
20180122102337 28 338 23.0 27.0 0.00 0.00 0.00 9 995.0
20180122102049 28 338 23.0 27.0 0.00 0.00 0.00 9 995.0
20180122101548 28 343 18.0 23.0 0.00 0.00 0.00 9 996.2
20180122101047 27 342 21.0 26.0 0.00 0.00 0.00 9 996.5
20180122100546 27 342 21.0 26.0 0.00 0.00 0.00 10 996.1
20180122100046 27 349 19.0 23.0 0.00 0.00 0.00 10 997.4
20180122095545 27 340 20.0 27.0 0.00 0.00 0.00 11 995.7
20180122095044 27 346 19.0 22.0 0.00 0.00 0.00 11 998.1
20180122094544 27 358 21.0 25.0 0.00 0.00 0.00 11 997.8
20180122094043 26 341 20.0 25.0 0.00 0.00 0.00 13 995.6
20180122094007 26 345 23.0 27.0 0.00 0.00 0.00 13 991.5
20180122093736 26 345 23.0 27.0 0.00 0.00 0.00 13 991.5
20180122093547 26 345 23.0 27.0 0.00 0.00 0.00 13 991.5
20180122093047 26 340 23.0 26.0 0.00 0.00 0.00 14 996.2
20180122092546 26 345 19.0 21.0 0.00 0.00 0.00 15 999.1
20180122092045 26 345 20.0 26.0 0.00 0.00 0.00 15 999.5
20180122091545 26 348 17.0 21.0 0.00 0.00 0.00 15 997.6
20180122091044 26 348 22.0 24.0 0.00 0.00 0.00 15 996.9
20180122090543 26 351 21.0 25.0 0.00 0.00 0.00 14 996.1
20180122090042 26 347 20.0 23.0 0.00 0.00 0.00 15 996.4
20180122085541 27 341 26.0 31.0 0.00 0.00 0.00 13 995.0
20180122085041 26 343 19.0 24.0 0.00 0.00 0.00 17 996.4
20180122084540 27 343 18.0 21.0 0.00 0.00 0.00 15 997.1
20180122084051 27 349 21.0 26.0 0.00 0.00 0.00 15 997.3
20180122083928 28 342 21.0 27.0 0.00 0.00 0.00 14 995.0
20180122083543 28 342 21.0 27.0 0.00 0.00 0.00 14 995.0
20180122083042 28 343 19.0 25.0 0.00 0.00 0.00 12 998.1
20180122082541 29 342 21.0 25.0 0.00 0.00 0.00 10 996.6
20180122082040 30 357 26.0 30.0 0.00 0.00 0.00 7 997.7
20180122081540 31 350 27.0 32.0 0.00 0.00 0.00 6 1000.2
20180122081051 30 348 28.0 35.0 0.00 0.00 0.00 8 997.9
20180122080550 30 351 22.0 29.0 0.00 0.00 0.00 9 997.9
20180122080049 30 350 28.0 31.0 0.00 0.00 0.00 8 998.9
20180122075548 30 349 28.0 32.0 0.00 0.00 0.00 8 1000.0
20180122075048 30 343 24.0 29.0 0.00 0.00 0.00 10 996.9
20180122074547 29 343 28.0 31.0 0.00 0.00 0.00 13 997.1
20180122074046 27 348 21.0 29.0 0.00 0.00 0.00 19 999.2
20180122073846 26 349 23.0 28.0 0.00 0.00 0.00 28 997.1
20180122073549 26 349 23.0 28.0 0.00 0.00 0.00 28 997.1
20180122073213 25 350 24.0 26.0 0.00 0.00 0.00 36 996.6
20180122073049 25 350 24.0 26.0 0.00 0.00 0.00 36 996.6
20180122072712 25 348 24.0 27.0 0.00 0.00 0.00 39 996.9
20180122072548 25 348 24.0 27.0 0.00 0.00 0.00 39 996.9
20180122072047 21 351 26.0 28.0 0.00 0.00 0.00 57 995.8
20180122071546 23 349 23.0 27.0 0.00 0.00 0.00 36 996.1
20180122071221 22 348 22.0 27.0 0.00 0.00 0.00 55 994.9
20180122071045 22 348 22.0 27.0 0.00 0.00 0.00 55 994.9
20180122070621 21 353 22.0 25.0 0.00 0.00 0.00 56 996.4
20180122070544 21 353 22.0 25.0 0.00 0.00 0.00 56 996.4
20180122070044 21 350 20.0 23.0 0.00 0.00 0.00 52 994.7
20180122065543 21 349 21.0 25.0 0.00 0.00 0.00 52 996.1
20180122065042 21 353 24.0 26.0 0.00 0.00 0.00 50 995.1
20180122064542 21 352 20.0 23.0 0.00 0.00 0.00 51 994.6
20180122064453 23 357 22.0 26.0 0.00 0.00 0.00 36 994.5
20180122064040 23 357 22.0 26.0 0.00 0.00 0.00 36 994.5
20180122063805 22 350 22.0 24.0 0.00 0.00 0.00 47 995.5
20180122063544 22 350 22.0 24.0 0.00 0.00 0.00 47 995.5
20180122063043 22 353 22.0 25.0 0.00 0.00 0.00 45 997.0
20180122062542 22 357 21.0 23.0 0.00 0.00 0.00 41 1001.6
20180122062041 23 351 20.0 22.0 0.00 0.00 0.00 38 998.8
20180122061540 23 355 17.0 22.0 0.00 0.00 0.00 35 1001.2
20180122061528 23 351 16.0 20.0 0.00 0.00 0.00 37 998.1
20180122061040 23 351 16.0 20.0 0.00 0.00 0.00 37 998.1
20180122060539 24 359 19.0 23.0 0.00 0.00 0.00 32 998.0
20180122060050 23 352 22.0 23.0 0.00 0.00 0.00 35 995.4
20180122055550 24 360 18.0 22.0 0.00 0.00 0.00 32 1000.0
20180122055049 23 351 17.0 19.0 0.00 0.00 0.00 33 1000.7
20180122054548 24 355 19.0 22.0 0.00 0.00 0.00 31 997.3
20180122054047 24 352 22.0 25.0 0.00 0.00 0.00 32 997.0
20180122053723 24 0 19.0 23.0 0.00 0.00 0.00 30 1000.3
20180122053540 24 0 19.0 23.0 0.00 0.00 0.00 30 1000.3
20180122053039 24 353 22.0 24.0 0.00 0.00 0.00 28 999.3
20180122052751 24 11 23.0 29.0 0.00 0.00 0.00 26 998.2
20180122052539 24 11 23.0 29.0 0.00 0.00 0.00 26 998.2
20180122052050 24 350 19.0 23.0 0.00 0.00 0.00 28 1000.1
20180122051549 24 354 21.0 23.0 0.00 0.00 0.00 27 997.8
20180122051048 24 356 23.0 26.0 0.00 0.00 0.00 25 996.7
20180122050547 24 353 21.0 24.0 0.00 0.00 0.00 24 995.5
20180122050047 24 354 22.0 25.0 0.00 0.00 0.00 24 998.3
20180122050011 24 355 21.0 24.0 0.00 0.00 0.00 26 996.9
20180122045546 24 355 21.0 24.0 0.00 0.00 0.00 26 996.9
20180122045045 23 351 22.0 24.0 0.00 0.00 0.00 26 998.3
20180122044544 24 351 20.0 23.0 0.00 0.00 0.00 27 995.7
20180122044156 24 352 21.0 22.0 0.00 0.00 0.00 25 998.2
20180122044044 24 352 21.0 22.0 0.00 0.00 0.00 25 998.2
20180122043643 23 353 20.0 23.0 0.00 0.00 0.00 25 996.2
20180122043549 23 353 20.0 23.0 0.00 0.00 0.00 25 996.2
20180122043048 24 354 22.0 23.0 0.00 0.00 0.00 24 998.4
20180122042948 24 351 22.0 24.0 0.00 0.00 0.00 23 997.5
20180122042547 24 351 22.0 24.0 0.00 0.00 0.00 23 997.5
20180122042046 24 355 22.0 26.0 0.00 0.00 0.00 23 997.4
20180122041633 24 353 23.0 25.0 0.00 0.00 0.00 21 998.1
20180122041545 24 353 23.0 25.0 0.00 0.00 0.00 21 998.1
20180122041045 25 353 22.0 27.0 0.00 0.00 0.00 17 998.3
20180122040544 26 353 20.0 24.0 0.00 0.00 0.00 16 994.7
20180122040043 26 353 22.0 27.0 0.00 0.00 0.00 14 995.6
20180122035542 27 359 24.0 27.0 0.00 0.00 0.00 11 997.4
20180122035041 27 355 27.0 31.0 0.00 0.00 0.00 10 994.6
20180122034541 27 353 29.0 32.0 0.00 0.00 0.00 9 995.8
20180122034040 27 352 30.0 34.0 0.00 0.00 0.00 7 996.4
20180122033603 28 351 30.0 34.0 0.00 0.00 0.00 7 996.9
20180122033044 28 349 31.0 36.0 0.00 0.00 0.00 6 995.1
20180122032543 28 353 29.0 33.0 0.00 0.00 0.00 7 995.3
20180122032043 28 351 27.0 31.0 0.00 0.00 0.00 7 995.1
20180122031542 27 349 29.0 34.0 0.00 0.00 0.00 8 992.4
20180122031041 28 349 25.0 31.0 0.00 0.00 0.00 8 993.3
20180122030541 28 346 26.0 32.0 0.00 0.00 0.00 6 992.2
20180122030040 28 355 29.0 36.0 0.00 0.00 0.00 6 995.6
20180122025539 28 350 28.0 34.0 0.00 0.00 0.00 6 995.5
20180122025039 28 354 27.0 32.0 0.00 0.00 0.00 7 998.8
20180122024550 28 350 27.0 32.0 0.00 0.00 0.00 6 998.8
20180122024049 27 350 30.0 35.0 0.00 0.00 0.00 6 997.8
20180122023549 27 351 28.0 32.0 0.00 0.00 0.00 7 998.6
20180122023524 27 354 26.0 30.0 0.00 0.00 0.00 7 997.4
20180122023041 27 354 26.0 30.0 0.00 0.00 0.00 7 997.4
20180122022541 27 349 31.0 34.0 0.00 0.00 0.00 6 995.4
20180122022040 27 349 30.0 35.0 0.00 0.00 0.00 6 994.5
20180122021539 28 348 30.0 35.0 0.00 0.00 0.00 6 996.5
20180122021039 27 350 28.0 33.0 0.00 0.00 0.00 6 993.8
20180122020939 27 350 30.0 34.0 0.00 0.00 0.00 6 992.2
20180122020550 27 350 30.0 34.0 0.00 0.00 0.00 6 992.2
20180122020150 27 354 29.0 35.0 0.00 0.00 0.00 7 997.7
20180122020050 27 354 29.0 35.0 0.00 0.00 0.00 7 997.7
20180122015548 27 350 27.0 31.0 0.00 0.00 0.00 8 996.7
20180122015048 26 356 30.0 34.0 0.00 0.00 0.00 8 991.9
20180122014547 27 360 27.0 33.0 0.00 0.00 0.00 8 996.3
20180122014046 26 351 25.0 30.0 0.00 0.00 0.00 7 996.2
20180122013545 26 349 28.0 33.0 0.00 0.00 0.00 7 997.1
20180122013446 26 353 29.0 33.0 0.00 0.00 0.00 8 996.6
20180122013038 26 353 29.0 33.0 0.00 0.00 0.00 8 996.6
20180122012549 26 352 29.0 34.0 0.00 0.00 0.00 7 995.4
20180122012048 27 352 31.0 36.0 0.00 0.00 0.00 7 996.3
20180122012036 26 351 31.0 34.0 0.00 0.00 0.00 7 996.5
20180122011548 26 351 31.0 34.0 0.00 0.00 0.00 7 996.5
20180122011311 27 352 33.0 36.0 0.00 0.00 0.00 7 993.3
20180122011047 27 352 33.0 36.0 0.00 0.00 0.00 7 993.3
20180122010546 26 350 37.0 37.0 0.00 0.00 0.00 7 993.4
20180122010045 26 355 32.0 35.0 0.00 0.00 0.00 7 994.0
20180122005945 26 1 32.0 37.0 0.00 0.00 0.00 7 993.9
20180122005544 26 1 32.0 37.0 0.00 0.00 0.00 7 993.9
20180122005044 26 359 30.0 39.0 0.00 0.00 0.00 8 993.9
20180122004731 26 349 32.0 38.0 0.00 0.00 0.00 7 996.3
20180122004543 26 349 32.0 38.0 0.00 0.00 0.00 7 996.3
20180122004042 26 355 32.0 36.0 0.00 0.00 0.00 7 996.3
20180122003542 26 357 33.0 39.0 0.00 0.00 0.00 7 992.5
20180122003406 26 353 28.0 37.0 0.00 0.00 0.00 7 991.8
20180122003046 26 353 28.0 37.0 0.00 0.00 0.00 7 991.8
20180122002546 26 0 29.0 36.0 0.00 0.00 0.00 8 993.4
20180122002045 26 350 27.0 32.0 0.00 0.00 0.00 8 995.1
20180122001544 27 359 30.0 34.0 0.00 0.00 0.00 9 997.0
20180122001043 27 353 27.0 31.0 0.00 0.00 0.00 9 999.3
20180122000543 27 348 24.0 27.0 0.00 0.00 0.00 9 997.7
20180122000042 26 353 26.0 33.0 0.00 0.00 0.00 9 997.1
20180121235541 27 6 27.0 31.0 0.00 0.00 0.00 7 995.3
20180121235040 27 350 22.0 31.0 0.00 0.00 0.00 8 996.4
20180121234539 27 350 25.0 34.0 0.00 0.00 0.00 8 994.1
20180121234039 27 3 24.0 32.0 0.00 0.00 0.00 8 993.7
20180121233714 27 355 29.0 35.0 0.00 0.00 0.00 7 992.1
20180121233538 27 355 29.0 35.0 0.00 0.00 0.00 7 992.1
20180121233326 28 360 25.0 31.0 0.00 0.00 0.00 7 992.4
20180121233042 28 360 25.0 31.0 0.00 0.00 0.00 7 992.4
20180121232541 28 7 23.0 25.0 0.00 0.00 0.00 9 991.4
20180121232040 28 346 28.0 42.0 0.00 0.00 0.00 10 990.8
20180121231539 28 357 24.0 28.0 0.00 0.00 0.00 12 989.9
20180121231039 28 351 18.0 29.0 0.00 0.00 0.00 12 990.9
20180121230538 28 352 25.0 31.0 0.00 0.00 0.00 10 993.8
20180121230037 28 355 24.0 26.0 0.00 0.00 0.00 9 998.4
20180121225548 28 352 19.0 25.0 0.00 0.00 0.00 8 997.8
20180121225047 28 348 21.0 29.0 0.00 0.00 0.00 10 997.2
20180121224811 29 351 12.0 16.0 0.00 0.00 0.00 13 997.1
20180121224547 29 351 12.0 16.0 0.00 0.00 0.00 13 997.1
20180121224046 28 347 15.0 23.0 0.00 0.00 0.00 15 995.5
20180121223545 28 355 12.0 16.0 0.00 0.00 0.00 13 994.1
20180121223244 28 2 17.0 27.0 0.00 0.00 0.00 12 994.5
20180121223049 28 2 17.0 27.0 0.00 0.00 0.00 12 994.5
20180121222548 28 300 13.0 17.0 0.00 0.00 0.00 11 994.2
20180121222047 29 348 14.0 18.0 0.00 0.00 0.00 11 992.0
20180121221547 29 351 15.0 23.0 0.00 0.00 0.00 12 994.3
20180121221046 30 346 13.0 18.0 0.00 0.00 0.00 10 995.3
20180121221009 29 348 10.0 16.0 0.00 0.00 0.00 11 993.9
20180121220545 29 348 10.0 16.0 0.00 0.00 0.00 11 993.9
20180121220044 28 279 8.0 16.0 0.00 0.00 0.00 12 995.6
20180121215543 28 319 15.0 22.0 0.00 0.00 0.00 10 994.4
20180121215043 29 4 6.0 13.0 0.00 0.00 0.00 11 993.6
20180121214542 28 350 15.0 20.0 0.00 0.00 0.00 9 997.2
20180121214041 29 331 11.0 17.0 0.00 0.00 0.00 10 992.0
20180121213540 28 346 15.0 25.0 0.00 0.00 0.00 9 995.5
20180121213204 28 347 15.0 24.0 0.00 0.00 0.00 10 996.3
20180121213045 28 347 15.0 24.0 0.00 0.00 0.00 10 996.3
20180121212809 28 337 16.0 25.0 0.00 0.00 0.00 9 994.1
20180121212544 28 337 16.0 25.0 0.00 0.00 0.00 9 994.1
20180121212120 29 321 10.0 20.0 0.00 0.00 0.00 10 992.3
20180121212044 29 321 10.0 20.0 0.00 0.00 0.00 10 992.3
20180121211819 27 295 22.0 30.0 0.00 0.00 0.00 10 992.3
20180121211543 27 295 22.0 30.0 0.00 0.00 0.00 10 992.3
20180121211042 26 338 12.0 20.0 0.00 0.00 0.00 14 992.9
20180121210653 26 341 21.0 30.0 0.00 0.00 0.00 10 992.7
20180121210541 26 341 21.0 30.0 0.00 0.00 0.00 10 992.7
20180121210040 26 338 19.0 23.0 0.00 0.00 0.00 10 991.9
20180121205539 26 327 19.0 29.0 0.00 0.00 0.00 11 991.5
20180121205039 26 314 14.0 27.0 0.00 0.00 0.00 12 994.3
20180121204939 26 321 15.0 22.0 0.00 0.00 0.00 12 994.1
20180121204538 26 321 15.0 22.0 0.00 0.00 0.00 12 994.1
20180121204037 26 341 23.0 30.0 0.00 0.00 0.00 10 993.8
20180121203548 27 336 11.0 17.0 0.00 0.00 0.00 10 993.0
20180121203124 26 310 14.0 17.0 0.00 0.00 0.00 9 991.5
20180121203042 26 310 14.0 17.0 0.00 0.00 0.00 9 991.5
20180121202540 24 334 18.0 24.0 0.00 0.00 0.00 13 991.2
20180121202040 24 301 19.0 24.0 0.00 0.00 0.00 12 992.0
20180121201539 24 328 9.0 18.0 0.00 0.00 0.00 12 992.2
20180121201038 24 263 12.0 18.0 0.00 0.00 0.00 12 993.1
20180121200537 24 308 15.0 22.0 0.00 0.00 0.00 12 993.9
20180121200048 24 273 15.0 25.0 0.00 0.00 0.00 13 994.4
20180121200024 23 249 8.0 14.0 0.00 0.00 0.00 15 997.3
20180121195547 23 249 8.0 14.0 0.00 0.00 0.00 15 997.3
20180121195046 23 324 13.0 16.0 0.00 0.00 0.00 13 996.7
20180121194545 24 261 7.0 8.0 0.00 0.00 0.00 22 993.7
20180121194044 23 266 6.0 11.0 0.00 0.00 0.00 15 992.9
20180121193543 22 246 4.0 6.0 0.00 0.00 0.00 21 995.7
20180121193042 22 263 5.0 8.0 0.00 0.00 0.00 15 991.4
20180121192547 22 293 7.0 14.0 0.00 0.00 0.00 16 994.1
20180121192047 23 291 4.0 5.0 0.00 0.00 0.00 22 994.6
20180121191546 22 307 5.0 6.0 0.00 0.00 0.00 16 995.7
20180121191045 21 305 4.0 5.0 0.00 0.00 0.00 21 995.8
20180121190545 22 299 3.0 5.0 0.00 0.00 0.00 16 996.6
20180121190533 20 270 5.0 7.0 0.00 0.00 0.00 16 995.2
20180121190356 20 270 5.0 7.0 0.00 0.00 0.00 16 995.2
20180121190156 20 270 5.0 7.0 0.00 0.00 0.00 16 995.2
20180121190044 20 270 5.0 7.0 0.00 0.00 0.00 16 995.2
20180121185543 21 311 4.0 6.0 0.00 0.00 0.00 15 995.3
20180121185042 21 306 5.0 6.0 0.00 0.00 0.00 13 995.1
20180121184906 21 308 4.0 6.0 0.00 0.00 0.00 15 996.3
20180121184542 21 308 4.0 6.0 0.00 0.00 0.00 15 996.3
20180121184041 21 306 5.0 7.0 0.00 0.00 0.00 14 995.4
20180121183540 20 303 5.0 6.0 0.00 0.00 0.00 14 995.0
20180121183428 20 286 5.0 6.0 0.00 0.00 0.00 13 996.0
20180121183039 20 286 5.0 6.0 0.00 0.00 0.00 13 996.0
20180121183004 20 310 4.0 7.0 0.00 0.00 0.00 16 996.1
20180121182631 20 310 4.0 7.0 0.00 0.00 0.00 16 996.1
20180121182542 20 310 4.0 7.0 0.00 0.00 0.00 16 996.1
20180121182042 21 304 4.0 6.0 0.00 0.00 0.00 14 996.3
20180121181942 20 307 4.0 4.0 0.00 0.00 0.00 16 993.8
20180121181541 20 307 4.0 4.0 0.00 0.00 0.00 16 993.8
20180121181040 19 266 3.0 4.0 0.00 0.00 0.00 18 997.2
20180121180539 20 313 3.0 5.0 0.00 0.00 0.00 20 993.9
20180121180303 20 301 2.0 3.0 0.00 0.00 0.00 18 995.8
20180121180038 20 301 2.0 3.0 0.00 0.00 0.00 18 995.8
20180121175614 19 292 2.0 4.0 0.00 0.00 0.00 20 993.7
20180121175538 19 292 2.0 4.0 0.00 0.00 0.00 20 993.7
20180121175049 19 317 2.0 3.0 0.00 0.00 0.00 18 994.9
20180121175013 18 287 3.0 4.0 0.00 0.00 0.00 19 997.1
20180121174548 18 287 3.0 4.0 0.00 0.00 0.00 19 997.1
20180121174048 18 263 3.0 6.0 0.00 0.00 0.00 19 996.8
20180121173547 17 297 2.0 4.0 0.00 0.00 0.00 22 994.1
20180121173146 18 331 1.0 2.0 0.00 0.00 0.00 26 995.4
20180121173046 18 331 1.0 2.0 0.00 0.00 0.00 26 995.4
20180121172921 17 273 1.0 2.0 0.00 0.00 0.00 24 995.2
20180121172626 17 273 1.0 2.0 0.00 0.00 0.00 24 995.2
20180121172538 17 273 1.0 2.0 0.00 0.00 0.00 24 995.2
20180121172037 17 319 1.0 2.0 0.00 0.00 0.00 24 994.4
20180121171536 17 301 1.0 2.0 0.00 0.00 0.00 27 992.2
20180121171048 17 335 1.0 2.0 0.00 0.00 0.00 30 993.2
20180121170547 16 297 1.0 1.0 0.00 0.00 0.00 34 996.2
20180121170246 15 293 1.0 2.0 0.00 0.00 0.00 30 995.0
20180121170046 15 293 1.0 2.0 0.00 0.00 0.00 30 995.0
20180121165710 16 301 24.0 38.0 0.00 0.00 0.00 23 993.1
20180121165545 16 301 24.0 38.0 0.00 0.00 0.00 23 993.1
20180121165044 15 303 20.0 30.0 0.00 0.00 0.00 27 993.4
20180121164544 15 306 19.0 24.0 0.00 0.00 0.00 27 995.4
20180121164419 15 303 14.0 23.0 0.00 0.00 0.00 30 994.4
20180121164043 15 303 14.0 23.0 0.00 0.00 0.00 30 994.4
20180121163542 15 304 16.0 23.0 0.00 0.00 0.00 34 991.1
20180121163040 15 297 13.0 18.0 0.00 0.00 0.00 38 992.9
20180121162840 14 303 10.0 13.0 0.00 0.00 0.00 45 991.3
20180121162545 14 303 10.0 13.0 0.00 0.00 0.00 45 991.3